Time;durP1;ratioP1;P1;durP2;ratioP2;P2;SDS_P1;SDS_P2;PMS_P1;PMS_P2;Temp;Humidity;BMP_temperature;BMP_pressure;BME280_temperature;BME280_humidity;BME280_pressure;Samples;Min_cycle;Max_cycle;Signal;HPM_P1;HPM_P2
2021/11/24 00:01:45;;;;;;;23.50;14.80;;;;;;;-3.65;88.87;98315.14;107984;1272;68624;-65
2021/11/24 00:04:17;;;;;;;22.60;13.40;;;;;;;-3.65;88.92;98313.77;108034;1275;68505;-66
2021/11/24 00:06:47;;;;;;;19.10;13.30;;;;;;;-3.66;88.98;98318.54;107974;1273;59801;-67
2021/11/24 00:09:17;;;;;;;17.60;11.80;;;;;;;-3.68;88.95;98319.73;107988;1276;59860;-66
2021/11/24 00:11:47;;;;;;;23.70;15.50;;;;;;;-3.70;88.96;98321.45;107899;1276;71521;-66
2021/11/24 00:14:16;;;;;;;23.60;15.40;;;;;;;-3.75;88.91;98321.79;107931;1276;68409;-66
2021/11/24 00:16:47;;;;;;;11.60;8.70;;;;;;;-3.80;88.86;98326.73;107989;1276;68651;-69
2021/11/24 00:19:16;;;;;;;30.20;18.70;;;;;;;-3.85;88.73;98326.06;107913;1276;59732;-66
2021/11/24 00:21:46;;;;;;;21.10;13.60;;;;;;;-3.89;88.86;98331.68;107967;1276;59730;-66
2021/11/24 00:24:15;;;;;;;36.40;20.20;;;;;;;-3.93;88.79;98333.05;107760;1278;71384;-66
2021/11/24 00:26:46;;;;;;;36.50;21.70;;;;;;;-3.98;88.85;98339.36;107865;1278;68101;-67
2021/11/24 00:29:15;;;;;;;30.60;18.10;;;;;;;-4.02;88.76;98342.42;108009;1272;70168;-66
2021/11/24 00:31:45;;;;;;;11.90;8.00;;;;;;;-4.06;88.83;98343.95;107776;1275;59767;-66
2021/11/24 00:34:14;;;;;;;35.00;18.60;;;;;;;-4.10;88.89;98345.66;107941;1276;59702;-66
2021/11/24 00:36:44;;;;;;;30.80;19.70;;;;;;;-4.12;89.04;98348.88;108012;1274;71384;-66
2021/11/24 00:39:13;;;;;;;32.30;17.80;;;;;;;-4.13;88.99;98351.95;107911;1277;67960;-66
2021/11/24 00:41:42;;;;;;;17.30;11.20;;;;;;;-4.16;88.93;98351.95;108030;1272;68902;-66
2021/11/24 00:44:12;;;;;;;20.30;13.50;;;;;;;-4.19;89.01;98352.64;107994;1276;59843;-66
2021/11/24 00:46:41;;;;;;;26.00;16.10;;;;;;;-4.22;88.95;98356.38;107753;1276;59752;-66
2021/11/24 00:49:11;;;;;;;34.10;19.60;;;;;;;-4.24;88.83;98354.16;107997;1273;71612;-68
2021/11/24 00:51:40;;;;;;;44.70;24.30;;;;;;;-4.23;88.89;98353.98;107981;1276;68004;-66
2021/11/24 00:54:10;;;;;;;18.70;12.90;;;;;;;-4.21;88.91;98353.30;108107;1272;69536;-66
2021/11/24 00:56:40;;;;;;;24.10;13.40;;;;;;;-4.20;88.76;98355.35;108034;1272;59771;-66
2021/11/24 00:59:09;;;;;;;18.70;12.60;;;;;;;-4.18;88.75;98352.63;107944;1276;59742;-66
2021/11/24 01:01:38;;;;;;;19.70;11.30;;;;;;;-4.13;88.95;98350.58;108020;1274;70780;-66
2021/11/24 01:04:08;;;;;;;23.50;14.80;;;;;;;-4.09;89.07;98352.97;108050;1276;68617;-67
2021/11/24 01:06:37;;;;;;;27.60;15.30;;;;;;;-4.05;89.17;98350.44;107985;1272;69344;-67
2021/11/24 01:09:08;;;;;;;22.10;12.40;;;;;;;-4.06;89.24;98347.37;108027;1276;59716;-66
2021/11/24 01:11:39;;;;;;;18.80;11.60;;;;;;;-4.10;89.33;98348.04;107985;1274;59793;-66
2021/11/24 01:14:09;;;;;;;19.60;11.10;;;;;;;-4.14;89.26;98344.98;108066;1276;71562;-65
2021/11/24 01:16:38;;;;;;;45.70;22.90;;;;;;;-4.17;89.28;98345.48;107914;1275;67705;-66
2021/11/24 01:19:08;;;;;;;37.90;21.50;;;;;;;-4.20;89.18;98342.06;107998;1272;68597;-66
2021/11/24 01:21:37;;;;;;;27.20;17.10;;;;;;;-4.24;89.23;98342.41;108013;1276;59766;-67
2021/11/24 01:24:07;;;;;;;33.90;19.70;;;;;;;-4.28;89.08;98340.36;108031;1272;59725;-66
2021/11/24 01:26:37;;;;;;;22.30;13.80;;;;;;;-4.32;89.10;98340.54;108087;1274;71580;-66
2021/11/24 01:29:06;;;;;;;24.40;14.80;;;;;;;-4.31;89.11;98342.91;107995;1274;68441;-67
2021/11/24 01:31:35;;;;;;;22.50;13.20;;;;;;;-4.30;89.28;98342.58;108067;1275;69444;-66
2021/11/24 01:34:05;;;;;;;32.10;17.00;;;;;;;-4.31;89.35;98343.93;108028;1274;59665;-66
2021/11/24 01:36:35;;;;;;;24.20;13.20;;;;;;;-4.33;89.37;98346.48;107996;1275;59784;-66
2021/11/24 01:39:04;;;;;;;19.20;11.80;;;;;;;-4.36;89.30;98345.45;108053;1275;70716;-66
2021/11/24 01:41:34;;;;;;;21.70;14.30;;;;;;;-4.39;89.26;98345.63;108028;1275;66861;-66
2021/11/24 01:44:06;;;;;;;34.00;17.40;;;;;;;-4.43;89.20;98342.05;108144;1272;70522;-67
2021/11/24 01:46:37;;;;;;;34.10;17.40;;;;;;;-4.47;89.04;98346.46;107943;1275;59814;-67
2021/11/24 01:49:07;;;;;;;;;;;;;;;-4.53;88.96;98348.33;108187;1273;59694;-68
2021/11/24 01:51:38;;;;;;;18.90;12.60;;;;;;;-4.58;89.06;98349.16;108033;1276;71614;-67
2021/11/24 01:54:08;;;;;;;30.70;17.60;;;;;;;-4.63;89.16;98346.93;108097;1272;68101;-67
2021/11/24 01:56:40;;;;;;;14.80;9.50;;;;;;;-4.66;89.32;98350.02;108074;1272;67615;-66
2021/11/24 01:59:11;;;;;;;22.70;14.70;;;;;;;-4.69;89.36;98349.98;108006;1276;59728;-67
2021/11/24 02:01:43;;;;;;;27.20;16.10;;;;;;;-4.71;89.26;98351.02;108066;1272;59779;-67
2021/11/24 02:04:15;;;;;;;35.40;18.70;;;;;;;-4.72;89.34;98349.64;107996;1275;71631;-67
2021/11/24 02:06:45;;;;;;;16.10;10.70;;;;;;;-4.72;89.34;98349.46;107851;1272;67923;-67
2021/11/24 02:09:15;;;;;;;19.50;13.50;;;;;;;-4.69;89.24;98348.96;107926;1275;68865;-67
2021/11/24 02:11:47;;;;;;;23.40;12.30;;;;;;;-4.65;89.19;98349.33;108007;1275;60103;-68
2021/11/24 02:14:18;;;;;;;32.90;18.00;;;;;;;-4.65;89.23;98351.02;108007;1272;59771;-67
2021/11/24 02:16:50;;;;;;;26.90;16.70;;;;;;;-4.66;89.17;98354.77;108057;1272;71000;-66
2021/11/24 02:19:22;;;;;;;36.10;20.40;;;;;;;-4.69;89.17;98353.21;107856;1277;67828;-67
2021/11/24 02:21:53;;;;;;;28.00;15.40;;;;;;;-4.72;89.15;98354.91;107998;1273;67763;-67
2021/11/24 02:24:31;;;;;;;26.00;15.90;;;;;;;-4.75;89.11;98354.23;107730;1278;59757;-67
2021/11/24 02:27:04;;;;;;;20.60;12.40;;;;;;;-4.78;89.18;98356.42;107998;1276;59725;-67
2021/11/24 02:29:36;;;;;;;16.60;11.50;;;;;;;-4.80;89.12;98353.70;107860;1277;71433;-66
2021/11/24 02:32:08;;;;;;;20.30;11.80;;;;;;;-4.83;88.95;98347.05;108095;1272;67833;-67
2021/11/24 02:34:40;;;;;;;12.50;9.20;;;;;;;-4.86;88.96;98347.21;107984;1272;69422;-68
2021/11/24 02:37:10;;;;;;;30.70;16.80;;;;;;;-4.90;88.99;98347.02;107928;1275;59756;-67
2021/11/24 02:39:43;;;;;;;19.60;12.60;;;;;;;-4.93;88.96;98347.88;108111;1275;59689;-67
2021/11/24 02:42:13;;;;;;;30.20;17.10;;;;;;;-4.96;88.99;98348.36;107990;1276;71554;-67
2021/11/24 02:44:43;;;;;;;33.20;17.70;;;;;;;-4.97;88.96;98349.39;108047;1275;67868;-67
2021/11/24 02:47:19;;;;;;;27.00;14.50;;;;;;;-4.97;89.19;98347.86;108037;1272;69418;-68
2021/11/24 02:49:52;;;;;;;37.10;19.90;;;;;;;-4.97;89.39;98350.40;108013;1272;59729;-67
2021/11/24 02:52:23;;;;;;;29.70;16.00;;;;;;;-4.99;89.35;98350.05;107954;1275;59795;-67
2021/11/24 02:54:58;;;;;;;;;;;;;;;-5.04;89.06;98350.04;107973;1276;70755;-66
2021/11/24 02:57:33;;;;;;;21.20;12.60;;;;;;;-5.10;88.92;98350.52;108098;1272;67688;-67
2021/11/24 03:00:33;;;;;;;16.40;9.90;;;;;;;-5.16;88.81;98351.86;108026;1275;69434;-66
2021/11/24 03:03:03;;;;;;;16.10;10.00;;;;;;;-5.19;88.71;98351.33;108027;1272;60113;-68
2021/11/24 03:05:33;;;;;;;31.40;17.00;;;;;;;-5.22;88.71;98354.73;107998;1275;59776;-67
2021/11/24 03:08:04;;;;;;;14.70;9.50;;;;;;;-5.24;88.89;98353.52;108069;1274;71708;-67
2021/11/24 03:10:33;;;;;;;;;;;;;;;-5.26;88.88;98350.80;108102;1272;66666;-66
2021/11/24 03:13:04;;;;;;;14.60;10.10;;;;;;;-5.26;88.96;98351.81;107935;1273;69479;-67
2021/11/24 03:15:35;;;;;;;18.10;10.80;;;;;;;-5.24;89.00;98353.34;108047;1272;59781;-67
2021/11/24 03:18:05;;;;;;;19.40;12.80;;;;;;;-5.26;88.96;98355.21;108109;1272;59726;-67
2021/11/24 03:20:37;;;;;;;13.60;8.10;;;;;;;-5.26;89.12;98351.81;108072;1274;70802;-67
2021/11/24 03:23:07;;;;;;;23.00;12.70;;;;;;;-5.24;89.12;98354.02;108066;1272;68143;-66
2021/11/24 03:25:37;;;;;;;22.30;14.20;;;;;;;-5.21;89.05;98357.11;108068;1275;68607;-67
2021/11/24 03:28:09;;;;;;;28.20;15.40;;;;;;;-5.21;89.16;98358.13;108077;1272;59779;-66
2021/11/24 03:30:39;;;;;;;;;;;;;;;-5.19;89.06;98360.52;108116;1272;59776;-66
2021/11/24 03:33:09;;;;;;;21.80;14.00;;;;;;;-5.16;88.99;98361.38;108089;1275;70580;-66
2021/11/24 03:35:40;;;;;;;23.60;14.10;;;;;;;-5.12;89.17;98355.45;108037;1272;68439;-67
2021/11/24 03:38:11;;;;;;;25.80;13.90;;;;;;;-5.08;89.28;98356.83;108077;1272;69273;-66
2021/11/24 03:40:41;;;;;;;26.40;16.00;;;;;;;-5.06;89.41;98357.85;108051;1275;59770;-66
2021/11/24 03:43:11;;;;;;;20.70;11.40;;;;;;;-5.05;89.53;98359.73;108095;1273;59693;-66
2021/11/24 03:45:42;;;;;;;24.70;13.70;;;;;;;-5.03;89.50;98362.13;108117;1272;71536;-66
2021/11/24 03:48:14;;;;;;;23.30;13.50;;;;;;;-5.00;89.64;98358.73;108029;1273;68776;-66
2021/11/24 03:50:45;;;;;;;21.20;13.10;;;;;;;-4.98;89.73;98360.77;107955;1272;69429;-66
2021/11/24 03:53:14;;;;;;;26.80;14.20;;;;;;;-4.99;89.75;98361.27;107990;1275;59720;-66
2021/11/24 03:55:46;;;;;;;22.90;12.40;;;;;;;-5.01;89.79;98358.89;108100;1272;59723;-67
2021/11/24 03:58:16;;;;;;;22.40;12.90;;;;;;;-5.04;89.74;98356.50;108214;1272;70748;-66
2021/11/24 04:00:46;;;;;;;18.60;11.60;;;;;;;-5.06;89.77;98358.70;108129;1271;68793;-67
2021/11/24 04:03:15;;;;;;;22.20;12.50;;;;;;;-5.05;89.86;98359.72;108061;1274;68775;-67
2021/11/24 04:05:45;;;;;;;21.20;11.80;;;;;;;-5.05;89.94;98363.29;108096;1275;59707;-66
2021/11/24 04:08:15;;;;;;;32.50;16.90;;;;;;;-5.07;89.98;98363.63;108233;1272;59658;-67
2021/11/24 04:10:46;;;;;;;27.80;14.50;;;;;;;-5.11;89.89;98363.09;108058;1275;70667;-66
2021/11/24 04:13:16;;;;;;;22.00;12.20;;;;;;;-5.16;89.80;98368.17;108145;1273;68668;-67
2021/11/24 04:15:47;;;;;;;24.60;13.10;;;;;;;-5.21;89.70;98365.77;107830;1272;69421;-66
2021/11/24 04:18:17;;;;;;;31.10;17.40;;;;;;;-5.27;89.58;98365.73;108073;1272;59792;-66
2021/11/24 04:20:48;;;;;;;22.00;12.70;;;;;;;-5.30;89.61;98365.39;108081;1274;59738;-66
2021/11/24 04:23:17;;;;;;;28.80;16.40;;;;;;;-5.35;89.50;98362.64;108002;1271;71584;-66
2021/11/24 04:25:46;;;;;;;17.70;12.30;;;;;;;-5.39;89.44;98365.86;108070;1273;68649;-67
2021/11/24 04:28:16;;;;;;;26.50;16.20;;;;;;;-5.44;89.36;98369.22;108125;1272;69392;-66
2021/11/24 04:30:45;;;;;;;32.00;16.90;;;;;;;-5.47;89.34;98371.58;108043;1271;59696;-67
2021/11/24 04:33:16;;;;;;;25.60;14.10;;;;;;;-5.48;89.39;98374.97;108081;1275;59783;-66
2021/11/24 04:35:46;;;;;;;25.80;14.30;;;;;;;-5.50;89.33;98369.86;107923;1273;69802;-66
2021/11/24 04:38:15;;;;;;;35.90;17.90;;;;;;;-5.53;89.42;98371.88;108023;1275;67717;-70
2021/11/24 04:40:45;;;;;;;20.20;12.70;;;;;;;-5.53;89.42;98374.09;108014;1275;69520;-66
2021/11/24 04:43:17;;;;;;;29.10;16.00;;;;;;;-5.55;89.33;98375.09;108071;1272;59721;-66
2021/11/24 04:45:48;;;;;;;27.90;14.90;;;;;;;-5.56;89.29;98376.95;107954;1276;59679;-66
2021/11/24 04:48:17;;;;;;;13.20;8.30;;;;;;;-5.57;89.31;98379.83;108058;1275;71660;-67
2021/11/24 04:50:46;;;;;;;21.40;12.50;;;;;;;-5.55;89.39;98384.27;108075;1273;68153;-66
2021/11/24 04:53:15;;;;;;;33.50;19.50;;;;;;;-5.52;89.43;98383.77;108205;1272;68420;-66
2021/11/24 04:55:45;;;;;;;28.30;17.10;;;;;;;-5.48;89.55;98386.69;108062;1274;59763;-66
2021/11/24 04:58:14;;;;;;;17.60;9.30;;;;;;;-5.47;89.56;98384.14;107964;1275;59675;-68
2021/11/24 05:00:43;;;;;;;24.60;12.60;;;;;;;-5.45;89.56;98381.94;107993;1275;71568;-67
2021/11/24 05:03:13;;;;;;;24.70;14.30;;;;;;;-5.38;89.76;98381.48;108067;1275;68703;-67
2021/11/24 05:05:45;;;;;;;25.80;13.80;;;;;;;-5.33;89.81;98379.30;108004;1272;69470;-68
2021/11/24 05:08:14;;;;;;;28.20;17.50;;;;;;;-5.31;89.88;98380.35;108125;1272;59780;-67
2021/11/24 05:10:46;;;;;;;41.70;25.90;;;;;;;-5.31;89.79;98382.03;107995;1272;59639;-67
2021/11/24 05:13:15;;;;;;;53.90;29.10;;;;;;;-5.28;89.98;98381.54;107957;1275;70819;-67
2021/11/24 05:15:45;;;;;;;;;;;;;;;-5.25;89.95;98380.88;108091;1272;68640;-67
2021/11/24 05:18:23;;;;;;;50.00;32.30;;;;;;;-5.24;90.10;98387.67;107986;1272;69445;-67
2021/11/24 05:20:53;;;;;;;25.50;16.30;;;;;;;-5.23;90.19;98387.02;107953;1275;59800;-67
2021/11/24 05:23:25;;;;;;;31.90;16.40;;;;;;;-5.18;90.35;98390.25;108042;1272;59733;-66
2021/11/24 05:25:54;;;;;;;27.70;15.20;;;;;;;-5.19;90.35;98392.11;108107;1272;71618;-66
2021/11/24 05:28:23;;;;;;;30.30;19.00;;;;;;;-5.23;90.29;98389.05;107763;1275;67967;-67
2021/11/24 05:30:52;;;;;;;34.00;17.20;;;;;;;-5.27;90.20;98384.42;108042;1273;69211;-66
2021/11/24 05:33:21;;;;;;;33.00;19.20;;;;;;;-5.30;90.23;98387.14;108028;1271;59729;-67
2021/11/24 05:35:50;;;;;;;18.30;12.10;;;;;;;-5.33;90.14;98388.47;108021;1272;59743;-66
2021/11/24 05:38:20;;;;;;;;;;;;;;;-5.37;90.11;98393.89;108060;1275;71579;-66
2021/11/24 05:40:50;;;;;;;26.50;14.80;;;;;;;-5.40;90.06;98397.95;107984;1275;68712;-67
2021/11/24 05:43:22;;;;;;;32.20;18.80;;;;;;;-5.43;90.02;98399.29;108108;1272;69397;-66
2021/11/24 05:48:23;;;;;;;35.90;17.50;;;;;;;-5.46;89.99;98399.77;107997;1272;59627;-66
2021/11/24 05:50:53;;;;;;;20.30;12.70;;;;;;;-5.47;89.98;98405.04;108117;1272;71494;-68
2021/11/24 05:53:23;;;;;;;19.30;12.80;;;;;;;-5.48;89.93;98403.00;108001;1275;67677;-68
2021/11/24 05:55:52;;;;;;;14.90;9.10;;;;;;;-5.48;89.89;98406.73;108085;1274;68493;-68
2021/11/24 05:58:23;;;;;;;22.80;14.70;;;;;;;-5.47;89.86;98406.73;108110;1272;59786;-67
2021/11/24 06:00:52;;;;;;;14.90;8.80;;;;;;;-5.47;89.82;98407.08;107986;1276;59746;-66
2021/11/24 06:03:22;;;;;;;28.80;16.00;;;;;;;-5.45;89.78;98409.81;107752;1276;71542;-67
2021/11/24 06:05:52;;;;;;;;;;;;;;;-5.42;89.86;98409.66;107952;1275;68641;-67
2021/11/24 06:08:22;;;;;;;42.90;20.10;;;;;;;-5.38;89.81;98411.73;107970;1272;69444;-67
2021/11/24 06:10:51;;;;;;;20.90;13.00;;;;;;;-5.33;89.85;98413.46;108012;1273;59792;-67
2021/11/24 06:13:20;;;;;;;36.80;19.20;;;;;;;-5.26;89.89;98414.86;107990;1272;59698;-67
2021/11/24 06:15:49;;;;;;;22.20;12.40;;;;;;;-5.18;89.90;98416.94;107557;1272;579406;-68
2021/11/24 06:18:20;;;;;;;21.70;12.30;;;;;;;-5.13;89.82;98414.08;107946;1274;67989;-67
2021/11/24 06:20:50;;;;;;;26.30;16.40;;;;;;;-5.07;89.82;98411.73;108011;1275;68658;-66
2021/11/24 06:23:19;;;;;;;23.80;14.50;;;;;;;-5.01;89.83;98410.08;107969;1272;59700;-67
2021/11/24 06:25:48;;;;;;;31.30;16.30;;;;;;;-4.93;89.88;98417.08;107987;1272;59735;-68
2021/11/24 06:28:17;;;;;;;31.20;18.80;;;;;;;-4.84;89.84;98418.81;107936;1275;72310;-67
2021/11/24 06:30:47;;;;;;;13.30;9.00;;;;;;;-4.73;89.91;98423.45;108028;1271;68647;-67
2021/11/24 06:33:16;;;;;;;24.50;15.30;;;;;;;-4.61;89.84;98422.15;108000;1272;69456;-67
2021/11/24 06:35:45;;;;;;;30.00;16.30;;;;;;;-4.50;89.82;98421.50;107973;1273;59772;-68
2021/11/24 06:38:14;;;;;;;34.70;19.90;;;;;;;-4.39;89.85;98424.92;108017;1271;59768;-67
2021/11/24 06:40:45;;;;;;;45.30;26.30;;;;;;;-4.27;89.81;98421.73;108039;1272;70843;-66
2021/11/24 06:43:14;;;;;;;37.50;24.80;;;;;;;-4.14;89.66;98427.70;107988;1272;67967;-68
2021/11/24 06:45:44;;;;;;;36.00;22.40;;;;;;;-4.00;89.66;98428.25;107993;1272;68603;-67
2021/11/24 06:48:13;;;;;;;73.60;39.30;;;;;;;-3.59;89.89;98427.58;107988;1272;59960;-67
2021/11/24 06:50:43;;;;;;;77.10;45.60;;;;;;;-2.83;90.06;98431.02;107945;1272;59764;-68
2021/11/24 06:53:12;;;;;;;79.50;44.50;;;;;;;-2.03;89.15;98431.50;107817;1275;71844;-67
2021/11/24 06:55:41;;;;;;;57.10;34.90;;;;;;;-1.21;88.08;98432.05;108046;1272;67963;-68
2021/11/24 06:58:12;;;;;;;57.90;34.60;;;;;;;-0.39;86.91;98435.42;107971;1272;68532;-67
2021/11/24 07:00:41;;;;;;;;;;;;;;;0.35;86.46;98436.23;107999;1274;59726;-67
2021/11/24 07:03:11;;;;;;;97.60;56.30;;;;;;;1.05;83.97;98436.62;107999;1275;59789;-67
2021/11/24 07:05:40;;;;;;;125.80;68.90;;;;;;;1.59;83.15;98437.28;108010;1275;70863;-67
2021/11/24 07:08:09;;;;;;;118.70;66.60;;;;;;;2.07;81.45;98439.00;107969;1273;67182;-68
2021/11/24 07:10:38;;;;;;;153.80;83.80;;;;;;;2.49;79.78;98438.89;107962;1273;69427;-67
2021/11/24 07:13:07;;;;;;;152.70;79.60;;;;;;;2.82;77.19;98437.73;107995;1272;59716;-66
2021/11/24 07:15:36;;;;;;;101.90;53.50;;;;;;;3.38;75.42;98436.59;108005;1272;59714;-67
2021/11/24 07:18:06;;;;;;;147.20;79.20;;;;;;;4.06;75.25;98441.02;107975;1272;70844;-67
2021/11/24 07:20:35;;;;;;;125.00;71.40;;;;;;;4.68;75.15;98437.33;107983;1272;68568;-66
2021/11/24 07:23:04;;;;;;;112.10;65.90;;;;;;;5.26;72.18;98441.25;107871;1271;69483;-68
2021/11/24 07:25:34;;;;;;;100.50;61.90;;;;;;;5.60;67.64;98442.44;107954;1271;59786;-67
2021/11/24 07:28:03;;;;;;;;;;;;;;;6.03;67.79;98441.05;107951;1271;59850;-68
2021/11/24 07:30:32;;;;;;;105.60;65.80;;;;;;;6.51;67.18;98437.81;108093;1271;70816;-68
2021/11/24 07:33:02;;;;;;;87.40;58.40;;;;;;;6.96;65.36;98437.52;107837;1271;68614;-66
2021/11/24 07:35:32;;;;;;;73.40;50.60;;;;;;;7.38;65.59;98441.42;108100;1273;68663;-67
2021/11/24 07:38:01;;;;;;;51.40;37.90;;;;;;;7.86;60.01;98444.35;108091;1272;59726;-67
2021/11/24 07:40:30;;;;;;;48.20;34.40;;;;;;;8.35;58.68;98447.45;108015;1275;59846;-65
2021/11/24 07:42:59;;;;;;;64.20;48.70;;;;;;;8.83;59.39;98442.20;108078;1275;71591;-67
2021/11/24 07:45:28;;;;;;;62.00;48.30;;;;;;;9.13;59.49;98439.84;108098;1272;68713;-66
2021/11/24 07:47:58;;;;;;;62.60;50.20;;;;;;;9.44;58.75;98443.29;108071;1272;68723;-67
2021/11/24 07:50:28;;;;;;;61.40;47.60;;;;;;;9.81;57.52;98442.23;107974;1272;59749;-66
2021/11/24 07:52:57;;;;;;;60.00;46.50;;;;;;;10.23;53.83;98445.72;108016;1273;59799;-66
2021/11/24 07:55:26;;;;;;;64.10;48.90;;;;;;;10.58;51.92;98443.41;108111;1272;70943;-67
2021/11/24 07:57:56;;;;;;;40.90;30.80;;;;;;;10.88;50.65;98442.95;108010;1272;67692;-67
2021/11/24 08:00:25;;;;;;;48.50;37.30;;;;;;;11.38;46.52;98445.23;107978;1272;68689;-65
2021/11/24 08:02:54;;;;;;;50.40;39.40;;;;;;;11.86;51.72;98445.16;107922;1273;59738;-66
2021/11/24 08:05:23;;;;;;;48.20;38.70;;;;;;;12.33;50.54;98450.75;108097;1272;59786;-67
2021/11/24 08:07:55;;;;;;;41.00;31.50;;;;;;;12.58;46.30;98439.19;107932;1272;71655;-65
2021/11/24 08:10:24;;;;;;;44.60;38.00;;;;;;;12.99;46.82;98440.73;108057;1272;68644;-69
2021/11/24 08:12:53;;;;;;;45.60;36.00;;;;;;;13.27;45.99;98437.63;108007;1273;68708;-67
2021/11/24 08:15:22;;;;;;;43.50;34.40;;;;;;;13.36;43.79;98435.98;107936;1271;59787;-67
2021/11/24 08:17:51;;;;;;;40.40;32.40;;;;;;;12.93;41.53;98436.42;107963;1272;59823;-66
2021/11/24 08:20:20;;;;;;;30.00;22.70;;;;;;;12.64;43.17;98439.87;107965;1272;71621;-67
2021/11/24 08:22:49;;;;;;;30.00;23.30;;;;;;;13.18;44.21;98441.90;108035;1272;68605;-66
2021/11/24 08:25:19;;;;;;;37.30;30.40;;;;;;;13.74;43.87;98442.64;108003;1271;69494;-66
2021/11/24 08:27:48;;;;;;;34.50;26.60;;;;;;;13.83;40.91;98446.06;107865;1274;59847;-66
2021/11/24 08:30:17;;;;;;;29.80;23.30;;;;;;;14.04;40.37;98447.71;107746;1274;59764;-65
2021/11/24 08:32:52;;;;;;;33.90;24.80;;;;;;;14.51;40.10;98446.67;108011;1276;71613;-65
2021/11/24 08:35:22;;;;;;;23.80;18.60;;;;;;;14.63;39.76;98447.72;107992;1273;68652;-65
2021/11/24 08:37:52;;;;;;;26.10;18.60;;;;;;;14.98;39.28;98444.12;107927;1274;68618;-65
2021/11/24 08:40:21;;;;;;;27.90;20.80;;;;;;;15.37;37.83;98443.80;107834;1275;59974;-65
2021/11/24 08:42:50;;;;;;;21.40;15.50;;;;;;;15.61;36.39;98444.31;107968;1273;59699;-66
2021/11/24 08:45:19;;;;;;;24.70;20.40;;;;;;;15.94;36.24;98440.66;107937;1275;70996;-66
2021/11/24 08:47:49;;;;;;;24.40;18.10;;;;;;;15.97;35.40;98444.14;107780;1274;67907;-64
2021/11/24 08:50:20;;;;;;;23.00;18.00;;;;;;;15.87;35.62;98446.31;107923;1275;69534;-66
2021/11/24 08:52:49;;;;;;;22.30;17.10;;;;;;;16.14;35.11;98445.98;107843;1275;59763;-66
2021/11/24 08:55:18;;;;;;;15.60;12.00;;;;;;;16.08;35.12;98445.06;107916;1275;59729;-66
2021/11/24 08:57:48;;;;;;;23.00;17.50;;;;;;;16.31;34.94;98448.66;107982;1274;70823;-67
2021/11/24 09:00:20;;;;;;;18.20;14.20;;;;;;;16.14;34.36;98443.14;107809;1275;68794;-65
2021/11/24 09:02:50;;;;;;;23.30;17.70;;;;;;;16.15;35.54;98443.40;107956;1274;68833;-65
2021/11/24 09:05:24;;;;;;;18.40;14.30;;;;;;;16.35;34.53;98443.59;107804;1272;59867;-66
2021/11/24 09:07:53;;;;;;;20.60;15.80;;;;;;;16.56;33.79;98442.41;107808;1272;59792;-66
2021/11/24 09:10:23;;;;;;;17.60;13.60;;;;;;;17.06;34.83;98436.08;107949;1272;70941;-67
2021/11/24 09:12:53;;;;;;;20.70;15.80;;;;;;;17.56;33.40;98439.07;107902;1275;68616;-68
2021/11/24 09:15:22;;;;;;;15.00;12.20;;;;;;;17.28;31.44;98440.20;107912;1276;69489;-66
2021/11/24 09:18:13;;;;;;;20.70;15.80;;;;;;;17.33;31.65;98439.80;107955;1276;59789;-66
2021/11/24 09:20:43;;;;;;;22.90;18.10;;;;;;;16.90;31.72;98434.04;107910;1275;60139;-65
2021/11/24 09:23:15;;;;;;;20.20;17.20;;;;;;;16.87;31.61;98428.16;108009;1272;71685;-67
2021/11/24 09:25:50;;;;;;;20.80;15.00;;;;;;;16.73;31.72;98429.60;108069;1271;68910;-67
2021/11/24 09:28:21;;;;;;;18.40;13.10;;;;;;;16.39;31.58;98425.65;107993;1272;69501;-65
2021/11/24 09:30:50;;;;;;;20.40;16.90;;;;;;;16.42;32.41;98416.50;107963;1271;59719;-68
2021/11/24 09:33:20;;;;;;;19.60;15.70;;;;;;;16.03;31.91;98420.66;108058;1272;59690;-65
2021/11/24 09:35:49;;;;;;;18.00;14.10;;;;;;;15.78;32.42;98420.86;107992;1271;70899;-65
2021/11/24 09:38:19;;;;;;;17.80;14.30;;;;;;;15.54;32.55;98418.98;107986;1275;68183;-65
2021/11/24 09:40:50;;;;;;;18.90;13.90;;;;;;;15.56;32.14;98420.55;107821;1272;69763;-64
2021/11/24 09:43:20;;;;;;;15.90;12.40;;;;;;;15.18;32.64;98419.07;107789;1272;59763;-69
2021/11/24 09:45:50;;;;;;;13.30;9.80;;;;;;;15.30;32.97;98418.52;108055;1272;59776;-66
2021/11/24 09:48:19;;;;;;;16.20;12.80;;;;;;;16.00;32.20;98414.73;107835;1276;71600;-66
2021/11/24 09:50:50;;;;;;;14.50;11.60;;;;;;;16.48;32.12;98409.45;107984;1275;68666;-67
2021/11/24 09:53:22;;;;;;;16.50;13.60;;;;;;;17.16;31.20;98410.70;108022;1271;68469;-66
2021/11/24 09:55:52;;;;;;;15.30;11.50;;;;;;;17.33;29.31;98404.17;107794;1274;59723;-66
2021/11/24 09:58:22;;;;;;;16.60;13.10;;;;;;;17.20;29.47;98401.97;107939;1271;59733;-65
2021/11/24 10:00:51;;;;;;;18.40;12.80;;;;;;;17.04;29.75;98396.74;107934;1272;71560;-66
2021/11/24 10:03:20;;;;;;;12.50;9.80;;;;;;;17.20;30.38;98392.06;108008;1271;68925;-66
2021/11/24 10:05:50;;;;;;;14.70;10.00;;;;;;;17.84;29.18;98391.57;107986;1271;69543;-66
2021/11/24 10:08:39;;;;;;;12.30;9.50;;;;;;;18.67;29.56;98394.23;107939;1272;59757;-67
2021/11/24 10:11:08;;;;;;;14.90;11.30;;;;;;;19.33;28.41;98399.02;107963;1273;59770;-67
2021/11/24 10:13:38;;;;;;;;;;;;;;;19.70;27.14;98396.29;107913;1272;71395;-68
2021/11/24 10:16:26;;;;;;;14.70;10.80;;;;;;;19.98;27.18;98392.70;107852;1274;67881;-67
2021/11/24 10:19:08;;;;;;;14.90;12.00;;;;;;;20.09;26.24;98390.36;107873;1274;69537;-68
2021/11/24 10:21:57;;;;;;;14.20;10.00;;;;;;;19.84;25.37;98386.30;108021;1273;59705;-67
2021/11/24 10:24:28;;;;;;;10.80;8.80;;;;;;;19.88;25.85;98387.30;108003;1272;59799;-68
2021/11/24 10:26:59;;;;;;;10.90;8.70;;;;;;;20.13;25.52;98386.08;107937;1272;71564;-67
2021/11/24 10:29:55;;;;;;;12.10;9.60;;;;;;;20.45;24.47;98374.67;107961;1272;68947;-67
2021/11/24 10:32:27;;;;;;;11.60;9.50;;;;;;;20.52;23.21;98370.83;107987;1272;68483;-66
2021/11/24 10:34:58;;;;;;;11.90;10.00;;;;;;;20.66;24.49;98367.63;107900;1272;59713;-67
2021/11/24 10:37:28;;;;;;;13.90;11.80;;;;;;;20.94;24.67;98365.91;107934;1272;59707;-65
2021/11/24 10:40:06;;;;;;;11.70;9.70;;;;;;;21.17;24.99;98363.64;107867;1275;70843;-67
2021/11/24 10:42:39;;;;;;;13.30;10.30;;;;;;;21.05;22.76;98357.89;108013;1271;68041;-69
2021/11/24 10:45:13;;;;;;;10.20;8.90;;;;;;;20.56;22.36;98348.13;107960;1272;69583;-67
2021/11/24 10:47:53;;;;;;;10.70;8.50;;;;;;;20.16;22.85;98346.56;108039;1272;59729;-66
2021/11/24 10:50:27;;;;;;;12.70;10.40;;;;;;;19.93;23.00;98347.20;108030;1272;59705;-68
2021/11/24 10:53:07;;;;;;;11.70;9.50;;;;;;;19.82;23.82;98340.58;107817;1274;72028;-68
2021/11/24 10:55:36;;;;;;;11.90;8.80;;;;;;;19.89;23.99;98338.21;107997;1272;68686;-68
2021/11/24 10:58:18;;;;;;;11.70;10.20;;;;;;;20.26;24.59;98325.93;107956;1272;69522;-65
2021/11/24 11:00:50;;;;;;;9.10;7.80;;;;;;;20.06;23.55;98331.38;107966;1272;59733;-66
2021/11/24 11:03:41;;;;;;;9.80;7.40;;;;;;;19.76;21.95;98331.45;107976;1275;59780;-67
2021/11/24 11:06:28;;;;;;;11.70;8.70;;;;;;;19.83;22.54;98322.67;107966;1273;71586;-68
2021/11/24 11:08:58;;;;;;;8.60;6.80;;;;;;;20.15;22.97;98319.71;108005;1275;67164;-66
2021/11/24 11:11:33;;;;;;;8.40;7.10;;;;;;;20.38;23.63;98318.91;107828;1272;69485;-67
2021/11/24 11:14:25;;;;;;;12.00;8.90;;;;;;;20.42;21.91;98313.02;108012;1272;59779;-66
2021/11/24 11:16:56;;;;;;;14.00;10.70;;;;;;;19.71;21.98;98309.64;108047;1272;59733;-67
2021/11/24 11:19:40;;;;;;;15.10;10.90;;;;;;;19.20;23.26;98303.70;107883;1275;71004;-66
2021/11/24 11:22:14;;;;;;;13.30;10.60;;;;;;;18.96;23.91;98305.05;108030;1272;68899;-68
2021/11/24 11:24:44;;;;;;;12.60;9.70;;;;;;;19.32;23.80;98300.07;107934;1272;68636;-67
2021/11/24 11:27:13;;;;;;;11.30;8.90;;;;;;;19.71;23.75;98300.51;107813;1275;59836;-68
2021/11/24 11:29:44;;;;;;;11.30;9.00;;;;;;;20.03;23.40;98293.85;107943;1274;59646;-65
2021/11/24 11:32:14;;;;;;;11.10;8.60;;;;;;;20.44;23.57;98290.66;107962;1272;70799;-66
2021/11/24 11:34:43;;;;;;;12.80;9.30;;;;;;;20.69;22.57;98290.64;107935;1272;68802;-67